createdAt,value
2022-09-20T00:01:28.430Z,99007.28
2022-09-20T00:03:57.994Z,99013.03
2022-09-20T00:06:27.787Z,99040.31
2022-09-20T00:08:55.795Z,99028.41
2022-09-20T00:11:25.148Z,99026.31
2022-09-20T00:13:57.583Z,99036.75
2022-09-20T00:16:29.633Z,99016.44
2022-09-20T00:18:58.132Z,99027.81
2022-09-20T00:21:30.853Z,99026.69
2022-09-20T00:23:58.814Z,99030.41
2022-09-20T00:26:29.694Z,98996.31
2022-09-20T00:28:58.393Z,99035.28
2022-09-20T00:31:25.373Z,99018.75
2022-09-20T00:33:56.302Z,99011.59
2022-09-20T00:36:23.512Z,99020.66
2022-09-20T00:38:55.887Z,99010.88
2022-09-20T00:41:22.860Z,99025.50
2022-09-20T00:43:52.927Z,99017.25
2022-09-20T00:46:48.770Z,99012.00
2022-09-20T00:49:27.765Z,99015.81
2022-09-20T00:52:00.946Z,99015.78
2022-09-20T00:54:31.304Z,99015.47
2022-09-20T00:56:58.128Z,99015.06
2022-09-20T00:59:33.087Z,99025.59
2022-09-20T01:02:14.829Z,99018.03
2022-09-20T01:04:43.124Z,99015.00
2022-09-20T01:07:13.832Z,99011.25
2022-09-20T01:09:40.787Z,99023.28
2022-09-20T01:12:16.281Z,99028.50
2022-09-20T01:14:47.331Z,99024.00
2022-09-20T01:17:16.043Z,99011.97
2022-09-20T01:20:02.785Z,99038.13
2022-09-20T01:22:41.450Z,99043.44
2022-09-20T01:25:49.602Z,99025.38
2022-09-20T01:28:17.157Z,99030.00
2022-09-20T01:31:04.736Z,99026.69
2022-09-20T01:33:44.822Z,99040.94
2022-09-20T01:36:18.662Z,99032.63
2022-09-20T01:38:48.655Z,99043.81
2022-09-20T01:41:25.042Z,99037.88
2022-09-20T01:44:30.964Z,99036.09
2022-09-20T01:47:11.048Z,99056.44
2022-09-20T01:49:43.739Z,99053.09
2022-09-20T01:52:19.307Z,99083.94
2022-09-20T01:54:55.041Z,99061.47
2022-09-20T01:57:40.340Z,99062.16
2022-09-20T02:00:14.233Z,99051.31
2022-09-20T02:03:08.830Z,99095.63
2022-09-20T02:05:47.693Z,99053.94
2022-09-20T02:08:26.272Z,99044.19
2022-09-20T02:11:09.058Z,99066.41
2022-09-20T02:13:51.991Z,99055.53
2022-09-20T02:16:52.858Z,99054.41
2022-09-20T02:20:01.491Z,99065.28
2022-09-20T02:23:09.356Z,99037.91
2022-09-20T02:25:44.911Z,99089.00
2022-09-20T02:28:29.661Z,99060.16
2022-09-20T02:31:14.849Z,99069.16
2022-09-20T02:34:20.904Z,99061.25
2022-09-20T02:37:15.431Z,99059.38
2022-09-20T02:40:00.560Z,99056.78
2022-09-20T02:42:35.974Z,99089.06
2022-09-20T02:45:27.689Z,99057.22
2022-09-20T02:48:00.670Z,99070.34
2022-09-20T02:50:55.428Z,99076.34
2022-09-20T02:53:31.168Z,99090.63
2022-09-20T02:56:42.364Z,99069.94
2022-09-20T02:59:40.091Z,99084.19
2022-09-20T03:02:26.012Z,99089.06
2022-09-20T03:05:12.104Z,99082.56
2022-09-20T03:08:03.280Z,99082.66
2022-09-20T03:10:38.531Z,99075.78
2022-09-20T03:13:34.278Z,99084.06
2022-09-20T03:16:49.899Z,99072.84
2022-09-20T03:19:36.662Z,99066.00
2022-09-20T03:22:31.440Z,99073.00
2022-09-20T03:25:22.507Z,99089.19
2022-09-20T03:28:08.876Z,99081.84
2022-09-20T03:30:41.755Z,99102.09
2022-09-20T03:33:31.743Z,99104.63
2022-09-20T03:36:25.993Z,99114.22
2022-09-20T03:39:11.242Z,99111.13
2022-09-20T03:41:57.810Z,99126.38
2022-09-20T03:44:45.907Z,99114.16
2022-09-20T03:47:26.632Z,99131.03
2022-09-20T03:50:18.996Z,99119.66
2022-09-20T03:53:17.930Z,99152.97
2022-09-20T03:56:11.597Z,99123.81
2022-09-20T03:58:56.986Z,99151.31
2022-09-20T04:01:35.689Z,99143.84
2022-09-20T04:04:27.217Z,99157.03
2022-09-20T04:07:11.596Z,99177.81
2022-09-20T04:09:56.129Z,99162.03
2022-09-20T04:12:41.645Z,99167.16
2022-09-20T04:15:37.376Z,99162.88
2022-09-20T04:18:37.142Z,99174.53
2022-09-20T04:21:18.614Z,99162.22
2022-09-20T04:24:10.183Z,99179.16
2022-09-20T04:26:44.184Z,99154.25
2022-09-20T04:29:11.022Z,99173.38
2022-09-20T04:31:52.065Z,99156.25
2022-09-20T04:34:31.581Z,99173.72
2022-09-20T04:37:02.723Z,99164.78
2022-09-20T04:39:57.153Z,99167.63
2022-09-20T04:42:51.063Z,99185.69
2022-09-20T04:45:33.114Z,99179.72
2022-09-20T04:48:26.743Z,99185.94
2022-09-20T04:51:21.175Z,99193.25
2022-09-20T04:53:53.834Z,99194.97
2022-09-20T04:56:26.488Z,99194.78
2022-09-20T04:59:06.689Z,99198.16
2022-09-20T05:02:21.789Z,99212.16
2022-09-20T05:05:13.172Z,99193.41
2022-09-20T05:08:04.531Z,99223.44
2022-09-20T05:10:52.598Z,99219.22
2022-09-20T05:13:36.454Z,99209.47
2022-09-20T05:16:21.491Z,99217.97
2022-09-20T05:19:29.861Z,99241.88
2022-09-20T05:22:17.608Z,99232.91
2022-09-20T05:25:05.557Z,99228.75
2022-09-20T05:27:43.646Z,99233.84
2022-09-20T05:30:22.773Z,99240.25
2022-09-20T05:32:58.667Z,99258.31
2022-09-20T05:35:49.810Z,99235.88
2022-09-20T05:38:54.403Z,99228.38
2022-09-20T05:41:40.502Z,99234.59
2022-09-20T05:44:29.025Z,99244.78
2022-09-20T05:47:29.497Z,99261.50
2022-09-20T05:50:30.122Z,99267.88
2022-09-20T05:53:37.996Z,99243.13
2022-09-20T05:56:49.651Z,99255.41
2022-09-20T05:59:32.154Z,99244.94
2022-09-20T06:02:23.813Z,99264.63
2022-09-20T06:05:03.378Z,99266.94
2022-09-20T06:07:42.163Z,99264.13
2022-09-20T06:10:33.380Z,99247.13
2022-09-20T06:13:38.378Z,99270.75
2022-09-20T06:16:07.707Z,99269.84
2022-09-20T06:18:59.591Z,99265.94
2022-09-20T06:21:41.631Z,99264.59
2022-09-20T06:24:35.580Z,99255.25
2022-09-20T06:27:11.020Z,99268.69
2022-09-20T06:29:42.780Z,99286.63
2022-09-20T06:32:33.088Z,99265.00
2022-09-20T06:35:02.283Z,99266.63
2022-09-20T06:37:32.041Z,99248.78
2022-09-20T06:40:46.593Z,99261.50
2022-09-20T06:43:13.447Z,99257.38
2022-09-20T06:45:41.331Z,99269.06
2022-09-20T06:48:19.620Z,99291.31
2022-09-20T06:50:46.446Z,99282.78
2022-09-20T06:53:16.874Z,99264.25
2022-09-20T06:55:45.070Z,99293.09
2022-09-20T06:58:12.059Z,99282.88
2022-09-20T07:00:38.891Z,99285.84
2022-09-20T07:03:06.282Z,99269.97
2022-09-20T07:05:33.204Z,99266.50
2022-09-20T07:08:00.517Z,99282.47
2022-09-20T07:10:28.479Z,99295.94
2022-09-20T07:13:00.243Z,99283.47
2022-09-20T07:15:32.817Z,99310.81
2022-09-20T07:17:59.968Z,99276.66
2022-09-20T07:20:27.210Z,99259.03
2022-09-20T07:22:54.118Z,99273.66
2022-09-20T07:25:21.548Z,99289.22
2022-09-20T07:27:51.711Z,99273.72
2022-09-20T07:30:24.508Z,99301.00
2022-09-20T07:32:51.324Z,99294.91
2022-09-20T07:35:18.205Z,99271.16
2022-09-20T07:37:45.134Z,99268.50
2022-09-20T07:40:11.976Z,99270.34
2022-09-20T07:42:38.945Z,99272.91
2022-09-20T07:45:06.395Z,99277.00
2022-09-20T07:47:33.238Z,99261.22
2022-09-20T07:49:59.975Z,99263.41
2022-09-20T07:52:26.808Z,99267.00
2022-09-20T07:54:53.562Z,99256.88
2022-09-20T07:57:38.502Z,99247.25
2022-09-20T08:00:08.684Z,99268.63
2022-09-20T08:02:39.502Z,99250.13
2022-09-20T08:05:07.048Z,99266.13
2022-09-20T08:07:33.924Z,99251.09
2022-09-20T08:10:00.831Z,99240.88
2022-09-20T08:15:33.089Z,99242.53
2022-09-20T08:17:59.875Z,99246.94
2022-09-20T08:20:26.642Z,99236.47
2022-09-20T08:23:19.462Z,99245.19
2022-09-20T08:25:40.326Z,99234.63
2022-09-20T08:28:07.122Z,99233.66
2022-09-20T08:30:34.003Z,99225.63
2022-09-20T08:33:03.218Z,99246.53
2022-09-20T08:35:30.116Z,99214.56
2022-09-20T08:37:56.990Z,99234.31
2022-09-20T08:40:25.439Z,99233.72
2022-09-20T08:42:53.461Z,99248.28
2022-09-20T08:45:40.681Z,99233.19
2022-09-20T08:48:16.416Z,99216.94
2022-09-20T08:50:43.264Z,99225.09
2022-09-20T08:53:13.678Z,99224.81
2022-09-20T08:55:41.258Z,99205.66
2022-09-20T08:58:11.928Z,99223.91
2022-09-20T09:00:46.776Z,99232.56
2022-09-20T09:03:15.515Z,99236.53
2022-09-20T09:05:51.254Z,99227.31
2022-09-20T09:08:19.389Z,99217.78
2022-09-20T09:10:51.810Z,99220.84
2022-09-20T09:13:42.259Z,99221.13
2022-09-20T09:16:22.618Z,99201.25
2022-09-20T09:18:51.139Z,99216.94
2022-09-20T09:21:22.092Z,99192.91
2022-09-20T09:24:05.487Z,99215.69
2022-09-20T09:26:38.262Z,99219.31
2022-09-20T09:29:21.088Z,99224.25
2022-09-20T09:31:53.283Z,99208.78
2022-09-20T09:34:27.336Z,99222.38
2022-09-20T09:36:55.129Z,99199.41
2022-09-20T09:39:28.429Z,99199.03
2022-09-20T09:41:56.395Z,99210.44
2022-09-20T09:44:33.411Z,99198.16
2022-09-20T09:47:01.122Z,99209.72
2022-09-20T09:49:30.580Z,99237.91
2022-09-20T09:52:14.559Z,99218.03
2022-09-20T09:54:51.726Z,99211.81
2022-09-20T09:57:44.197Z,99200.00
2022-09-20T10:00:21.464Z,99207.09
2022-09-20T10:03:16.259Z,99196.66
2022-09-20T10:06:07.075Z,99188.38
2022-09-20T10:08:54.603Z,99234.47
2022-09-20T10:11:39.711Z,99206.25
2022-09-20T10:14:18.592Z,99195.75
2022-09-20T10:17:03.733Z,99206.22
2022-09-20T10:19:45.676Z,99200.38
2022-09-20T10:22:30.037Z,99191.34
2022-09-20T10:25:24.095Z,99203.16
2022-09-20T10:27:53.947Z,99222.78
2022-09-20T10:31:00.510Z,99214.22
2022-09-20T10:33:35.080Z,99196.19
2022-09-20T10:36:09.846Z,99205.19
2022-09-20T10:38:52.237Z,99198.38
2022-09-20T10:41:44.075Z,99183.16
2022-09-20T10:44:15.809Z,99185.59
2022-09-20T10:47:23.002Z,99178.63
2022-09-20T10:50:38.985Z,99189.03
2022-09-20T10:53:14.779Z,99202.75
2022-09-20T10:55:52.015Z,99183.03
2022-09-20T10:58:48.029Z,99178.81
2022-09-20T11:01:33.989Z,99185.53
2022-09-20T11:04:19.368Z,99190.03
2022-09-20T11:07:18.214Z,99177.34
2022-09-20T11:09:52.169Z,99175.88
2022-09-20T11:12:25.269Z,99186.44
2022-09-20T11:15:30.408Z,99185.44
2022-09-20T11:18:05.448Z,99160.09
2022-09-20T11:21:06.628Z,99200.97
2022-09-20T11:24:10.276Z,99196.28
2022-09-20T11:26:51.789Z,99181.78
2022-09-20T11:29:40.611Z,99183.44
2022-09-20T11:32:30.538Z,99194.66
2022-09-20T11:35:20.331Z,99204.84
2022-09-20T11:38:02.739Z,99193.38
2022-09-20T11:40:37.117Z,99186.66
2022-09-20T11:43:08.329Z,99190.44
2022-09-20T11:45:39.684Z,99188.69
2022-09-20T11:48:28.732Z,99165.69
2022-09-20T11:51:07.751Z,99186.16
2022-09-20T11:53:37.649Z,99162.75
2022-09-20T11:56:10.590Z,99152.16
2022-09-20T11:58:52.104Z,99153.34
2022-09-20T12:01:34.278Z,99169.59
2022-09-20T12:07:26.562Z,99165.16
2022-09-20T12:10:01.408Z,99149.50
2022-09-20T12:12:47.078Z,99126.66
2022-09-20T12:15:32.283Z,99161.66
2022-09-20T12:17:59.068Z,99155.31
2022-09-20T12:20:34.538Z,99166.09
2022-09-20T12:23:38.673Z,99157.91
2022-09-20T12:26:05.496Z,99167.13
2022-09-20T12:28:43.426Z,99145.97
2022-09-20T12:31:19.628Z,99145.25
2022-09-20T12:34:03.238Z,99145.00
2022-09-20T12:36:33.028Z,99136.56
2022-09-20T12:39:11.971Z,99145.41
2022-09-20T12:41:53.849Z,99145.31
2022-09-20T12:44:23.661Z,99167.38
2022-09-20T12:47:24.666Z,99161.88
2022-09-20T12:49:54.163Z,99146.16
2022-09-20T12:52:35.058Z,99175.03
2022-09-20T12:55:08.987Z,99150.47
2022-09-20T12:57:38.814Z,99153.59
2022-09-20T13:00:08.049Z,99158.72
2022-09-20T13:02:53.228Z,99152.66
2022-09-20T13:05:37.535Z,99200.69
2022-09-20T13:08:31.900Z,99157.00
2022-09-20T13:11:08.711Z,99187.81
2022-09-20T13:13:56.991Z,99159.91
2022-09-20T13:16:36.083Z,99177.88
2022-09-20T13:19:15.293Z,99152.38
2022-09-20T13:21:54.363Z,99162.03
2022-09-20T13:24:42.451Z,99152.84
2022-09-20T13:27:19.395Z,99163.13
2022-09-20T13:29:46.921Z,99176.78
2022-09-20T13:32:16.795Z,99155.13
2022-09-20T13:34:45.920Z,99157.09
2022-09-20T13:37:19.648Z,99160.03
2022-09-20T13:39:55.754Z,99144.34
2022-09-20T13:42:23.154Z,99153.06
2022-09-20T13:44:52.751Z,99153.22
2022-09-20T13:47:27.744Z,99128.59
2022-09-20T13:50:22.714Z,99157.31
2022-09-20T13:53:00.715Z,99155.41
2022-09-20T13:55:30.517Z,99168.31
2022-09-20T13:58:01.757Z,99152.31
2022-09-20T14:00:29.647Z,99156.19
2022-09-20T14:02:58.421Z,99148.94
2022-09-20T14:05:28.911Z,99143.00
2022-09-20T14:08:00.576Z,99157.69
2022-09-20T14:10:36.949Z,99170.00
2022-09-20T14:13:14.009Z,99164.22
2022-09-20T14:15:47.339Z,99169.44
2022-09-20T14:18:21.060Z,99170.56
2022-09-20T14:20:48.627Z,99164.94
2022-09-20T14:23:39.876Z,99182.16
2022-09-20T14:26:15.794Z,99183.34
2022-09-20T14:28:43.635Z,99162.56
2022-09-20T14:31:21.660Z,99170.59
2022-09-20T14:33:55.071Z,99146.69
2022-09-20T14:36:25.535Z,99177.22
2022-09-20T14:38:55.500Z,99182.09
2022-09-20T14:41:49.013Z,99185.06
2022-09-20T14:44:30.136Z,99192.16
2022-09-20T14:46:57.765Z,99181.31
2022-09-20T14:49:24.596Z,99153.63
2022-09-20T14:52:15.139Z,99176.25
2022-09-20T14:54:42.027Z,99167.81
2022-09-20T14:57:08.919Z,99177.91
2022-09-20T14:59:38.304Z,99186.78
2022-09-20T15:02:05.235Z,99198.50
2022-09-20T15:04:33.292Z,99208.13
2022-09-20T15:07:02.938Z,99165.69
2022-09-20T15:09:30.342Z,99191.81
2022-09-20T15:12:05.682Z,99190.78
2022-09-20T15:14:37.416Z,99184.38
2022-09-20T15:17:10.250Z,99195.47
2022-09-20T15:19:37.104Z,99208.97
2022-09-20T15:22:06.253Z,99184.16
2022-09-20T15:24:33.553Z,99188.66
2022-09-20T15:27:00.542Z,99179.41
2022-09-20T15:29:27.420Z,99170.06
2022-09-20T15:31:57.338Z,99185.88
2022-09-20T15:34:24.366Z,99184.53
2022-09-20T15:36:51.789Z,99190.47
2022-09-20T15:39:18.756Z,99189.84
2022-09-20T15:41:45.667Z,99199.22
2022-09-20T15:44:15.981Z,99214.13
2022-09-20T15:46:42.896Z,99223.28
2022-09-20T15:49:12.030Z,99210.16
2022-09-20T15:51:39.303Z,99204.53
2022-09-20T15:54:07.394Z,99190.31
2022-09-20T15:56:54.805Z,99193.19
2022-09-20T15:59:21.828Z,99209.59
2022-09-20T16:01:48.807Z,99202.91
2022-09-20T16:04:19.042Z,99194.16
2022-09-20T16:06:49.283Z,99187.38
2022-09-20T16:09:16.552Z,99200.84
2022-09-20T16:11:43.521Z,99194.78
2022-09-20T16:14:11.038Z,99181.28
2022-09-20T16:16:40.654Z,99184.13
2022-09-20T16:19:10.668Z,99187.53
2022-09-20T16:21:39.590Z,99205.31
2022-09-20T16:24:07.529Z,99192.31
2022-09-20T16:26:34.967Z,99189.09
2022-09-20T16:29:02.154Z,99206.53
2022-09-20T16:31:42.829Z,99182.28
2022-09-20T16:34:26.599Z,99191.28
2022-09-20T16:36:55.157Z,99199.38
2022-09-20T16:39:22.825Z,99229.59
2022-09-20T16:41:55.524Z,99206.84
2022-09-20T16:44:22.410Z,99201.53
2022-09-20T16:46:54.476Z,99205.41
2022-09-20T16:49:22.243Z,99190.41
2022-09-20T16:51:49.235Z,99206.19
2022-09-20T16:54:17.292Z,99223.50
2022-09-20T16:56:46.612Z,99211.28
2022-09-20T16:59:15.334Z,99210.44
2022-09-20T17:01:43.167Z,99227.72
2022-09-20T17:04:11.608Z,99223.34
2022-09-20T17:06:39.056Z,99219.88
2022-09-20T17:09:07.336Z,99225.28
2022-09-20T17:11:38.722Z,99200.72
2022-09-20T17:14:06.640Z,99215.28
2022-09-20T17:17:09.049Z,99213.56
2022-09-20T17:19:38.311Z,99227.66
2022-09-20T17:22:05.306Z,99180.97
2022-09-20T17:24:32.466Z,99216.16
2022-09-20T17:26:59.312Z,99223.00
2022-09-20T17:29:26.627Z,99210.13
2022-09-20T17:31:56.261Z,99213.34
2022-09-20T17:34:25.251Z,99215.25
2022-09-20T17:36:53.677Z,99215.56
2022-09-20T17:39:20.855Z,99203.53
2022-09-20T17:41:49.068Z,99197.38
2022-09-20T17:44:16.707Z,99194.66
2022-09-20T17:46:48.086Z,99210.53
2022-09-20T17:49:23.219Z,99200.97
2022-09-20T17:51:55.803Z,99202.84
2022-09-20T17:54:24.092Z,99208.28
2022-09-20T17:56:53.167Z,99191.16
2022-09-20T17:59:20.798Z,99195.34
2022-09-20T18:01:50.188Z,99203.94
2022-09-20T18:04:18.045Z,99209.97
2022-09-20T18:06:49.762Z,99196.44
2022-09-20T18:09:19.772Z,99220.34
2022-09-20T18:11:49.554Z,99224.09
2022-09-20T18:14:42.474Z,99200.09
2022-09-20T18:17:09.552Z,99203.88
2022-09-20T18:19:36.366Z,99205.66
2022-09-20T18:22:04.154Z,99192.25
2022-09-20T18:24:31.708Z,99216.06
2022-09-20T18:26:59.010Z,99191.56
2022-09-20T18:29:25.927Z,99205.53
2022-09-20T18:31:54.491Z,99209.41
2022-09-20T18:34:23.993Z,99184.28
2022-09-20T18:36:55.997Z,99199.53
2022-09-20T18:39:33.559Z,99206.75
2022-09-20T18:42:01.863Z,99200.88
2022-09-20T18:44:28.810Z,99204.69
2022-09-20T18:46:55.919Z,99180.06
2022-09-20T18:49:22.901Z,99179.97
2022-09-20T18:51:49.889Z,99175.88
2022-09-20T18:54:18.007Z,99174.13
2022-09-20T18:56:47.158Z,99181.00
2022-09-20T18:59:19.364Z,99163.28
2022-09-20T19:01:51.957Z,99183.03
2022-09-20T19:04:56.589Z,99188.91
2022-09-20T19:07:32.631Z,99175.19
2022-09-20T19:10:05.707Z,99172.53
2022-09-20T19:13:02.382Z,99176.34
2022-09-20T19:15:41.514Z,99228.06
2022-09-20T19:18:31.627Z,99183.00
2022-09-20T19:21:19.988Z,99196.50
2022-09-20T19:24:13.815Z,99194.19
2022-09-20T19:26:41.067Z,99189.13
2022-09-20T19:29:26.468Z,99209.19
2022-09-20T19:31:56.783Z,99209.19
2022-09-20T19:34:29.841Z,99190.97
2022-09-20T19:37:05.884Z,99201.34
2022-09-20T19:40:06.310Z,99203.72
2022-09-20T19:42:45.581Z,99205.72
2022-09-20T19:45:30.584Z,99192.13
2022-09-20T19:48:16.681Z,99176.78
2022-09-20T19:50:46.137Z,99182.66
2022-09-20T19:53:15.066Z,99170.72
2022-09-20T19:55:46.679Z,99177.44
2022-09-20T19:58:14.998Z,99147.31
2022-09-20T20:00:46.851Z,99161.16
2022-09-20T20:03:15.423Z,99169.75
2022-09-20T20:06:09.813Z,99179.50
2022-09-20T20:08:55.139Z,99186.44
2022-09-20T20:11:31.137Z,99187.09
2022-09-20T20:14:07.121Z,99189.28
2022-09-20T20:17:11.794Z,99205.84
2022-09-20T20:19:45.115Z,99202.47
2022-09-20T20:22:50.098Z,99190.41
2022-09-20T20:25:44.088Z,99205.81
2022-09-20T20:28:11.111Z,99176.41
2022-09-20T20:30:37.913Z,99191.25
2022-09-20T20:33:06.426Z,99177.28
2022-09-20T20:35:33.263Z,99199.25
2022-09-20T20:38:00.133Z,99191.19
2022-09-20T20:40:26.951Z,99196.22
2022-09-20T20:42:57.011Z,99176.41
2022-09-20T20:45:26.968Z,99194.13
2022-09-20T20:47:57.962Z,99185.97
2022-09-20T20:50:26.361Z,99171.84
2022-09-20T20:52:56.528Z,99185.84
2022-09-20T20:55:24.197Z,99200.28
2022-09-20T20:57:55.406Z,99172.53
2022-09-20T21:00:22.194Z,99170.31
2022-09-20T21:02:49.161Z,99173.28
2022-09-20T21:05:16.067Z,99187.31
2022-09-20T21:07:42.799Z,99184.03
2022-09-20T21:10:09.899Z,99172.41
2022-09-20T21:12:36.656Z,99190.59
2022-09-20T21:15:03.841Z,99166.72
2022-09-20T21:17:35.287Z,99162.44
2022-09-20T21:20:03.634Z,99173.63
2022-09-20T21:22:30.385Z,99167.03
2022-09-20T21:24:57.353Z,99188.41
2022-09-20T21:27:24.191Z,99184.06
2022-09-20T21:29:56.660Z,99170.56
2022-09-20T21:32:23.533Z,99164.50
2022-09-20T21:34:50.374Z,99169.28
2022-09-20T21:37:17.203Z,99169.47
2022-09-20T21:39:43.964Z,99155.47
2022-09-20T21:42:10.800Z,99159.66
2022-09-20T21:44:37.597Z,99165.41
2022-09-20T21:47:04.466Z,99155.19
2022-09-20T21:49:31.208Z,99172.34
2022-09-20T21:51:58.078Z,99159.75
2022-09-20T21:54:24.787Z,99160.00
2022-09-20T21:56:51.574Z,99182.06
2022-09-20T21:59:18.490Z,99181.47
2022-09-20T22:01:45.429Z,99156.44
2022-09-20T22:04:12.659Z,99161.72
2022-09-20T22:06:44.244Z,99169.88
2022-09-20T22:09:16.477Z,99166.53
2022-09-20T22:11:48.586Z,99144.78
2022-09-20T22:14:17.412Z,99179.47
2022-09-20T22:16:47.765Z,99148.25
2022-09-20T22:19:16.882Z,99155.16
2022-09-20T22:21:45.968Z,99165.91
2022-09-20T22:24:14.645Z,99141.59
2022-09-20T22:27:05.960Z,99182.25
2022-09-20T22:29:32.906Z,99161.97
2022-09-20T22:31:59.641Z,99169.50
2022-09-20T22:34:26.440Z,99162.81
2022-09-20T22:36:53.216Z,99177.09
2022-09-20T22:39:20.120Z,99190.19
2022-09-20T22:41:46.946Z,99168.16
2022-09-20T22:44:14.346Z,99185.84
2022-09-20T22:46:41.119Z,99177.41
2022-09-20T22:49:09.129Z,99190.53
2022-09-20T22:51:36.563Z,99184.63
2022-09-20T22:54:09.209Z,99157.72
2022-09-20T22:56:37.328Z,99164.91
2022-09-20T22:59:10.275Z,99161.25
2022-09-20T23:01:40.007Z,99166.16
2022-09-20T23:04:10.102Z,99155.75
2022-09-20T23:06:39.200Z,99168.34
2022-09-20T23:09:12.837Z,99134.53
2022-09-20T23:11:43.477Z,99153.78
2022-09-20T23:14:16.130Z,99117.69
2022-09-20T23:16:43.276Z,99153.38
2022-09-20T23:19:11.298Z,99131.09
2022-09-20T23:21:40.293Z,99140.19
2022-09-20T23:24:09.638Z,99128.94
2022-09-20T23:26:38.209Z,99136.97
2022-09-20T23:29:08.323Z,99139.94
2022-09-20T23:31:36.676Z,99130.03
2022-09-20T23:34:06.415Z,99135.56
2022-09-20T23:36:36.543Z,99131.97
2022-09-20T23:39:03.424Z,99123.06
2022-09-20T23:41:30.371Z,99144.38
2022-09-20T23:43:57.554Z,99132.94
2022-09-20T23:46:26.113Z,99138.91
2022-09-20T23:48:52.968Z,99138.66
2022-09-20T23:51:25.972Z,99121.16
2022-09-20T23:53:53.492Z,99116.69
2022-09-20T23:56:22.053Z,99127.72
2022-09-20T23:58:49.551Z,99115.47
